createdAt,value
2018-08-06T00:00:23.757Z,17.80
2018-08-06T00:02:52.187Z,17.70
2018-08-06T00:05:20.612Z,17.70
2018-08-06T00:07:49.179Z,17.70
2018-08-06T00:10:19.124Z,17.70
2018-08-06T00:12:47.474Z,17.70
2018-08-06T00:15:16.144Z,17.70
2018-08-06T00:17:44.605Z,17.70
2018-08-06T00:20:13.947Z,17.60
2018-08-06T00:22:42.739Z,17.60
2018-08-06T00:25:12.452Z,17.50
2018-08-06T00:27:41.554Z,17.50
2018-08-06T00:30:11.643Z,17.50
2018-08-06T00:32:41.188Z,17.50
2018-08-06T00:35:10.153Z,17.40
2018-08-06T00:37:38.687Z,17.50
2018-08-06T00:40:10.057Z,17.40
2018-08-06T00:42:38.561Z,17.40
2018-08-06T00:45:08.752Z,17.40
2018-08-06T00:47:37.170Z,17.40
2018-08-06T00:50:05.887Z,17.40
2018-08-06T00:52:34.280Z,17.30
2018-08-06T00:55:02.586Z,17.30
2018-08-06T00:57:30.955Z,17.20
2018-08-06T00:59:59.295Z,17.20
2018-08-06T01:02:27.698Z,17.10
2018-08-06T01:04:56.090Z,17.10
2018-08-06T01:07:24.467Z,17.00
2018-08-06T01:09:52.866Z,17.00
2018-08-06T01:12:21.197Z,17.00
2018-08-06T01:14:49.626Z,17.00
2018-08-06T01:17:17.957Z,17.00
2018-08-06T01:19:46.357Z,16.90
2018-08-06T01:22:14.752Z,17.00
2018-08-06T01:24:43.148Z,17.00
2018-08-06T01:27:11.558Z,17.00
2018-08-06T01:29:39.970Z,17.00
2018-08-06T01:32:08.493Z,17.10
2018-08-06T01:34:36.859Z,17.00
2018-08-06T01:37:05.531Z,17.00
2018-08-06T01:39:33.948Z,16.90
2018-08-06T01:42:02.396Z,17.00
2018-08-06T01:44:30.766Z,16.90
2018-08-06T01:46:59.095Z,16.90
2018-08-06T01:49:28.496Z,16.90
2018-08-06T01:51:56.885Z,16.90
2018-08-06T01:54:25.239Z,16.90
2018-08-06T01:56:53.574Z,16.90
2018-08-06T01:59:21.922Z,16.90
2018-08-06T02:01:50.255Z,16.80
2018-08-06T02:04:18.611Z,16.80
2018-08-06T02:06:47.036Z,16.70
2018-08-06T02:09:15.576Z,16.70
2018-08-06T02:11:43.978Z,16.70
2018-08-06T02:14:12.308Z,16.70
2018-08-06T02:16:40.666Z,16.70
2018-08-06T02:19:09.020Z,16.70
2018-08-06T02:21:37.467Z,16.60
2018-08-06T02:24:05.920Z,16.60
2018-08-06T02:26:34.314Z,16.70
2018-08-06T02:29:02.674Z,16.70
2018-08-06T02:31:31.038Z,16.60
2018-08-06T02:33:59.377Z,16.60
2018-08-06T02:36:27.798Z,16.60
2018-08-06T02:38:56.137Z,16.60
2018-08-06T02:43:52.512Z,16.50
2018-08-06T02:46:20.896Z,16.40
2018-08-06T02:48:49.281Z,16.40
2018-08-06T02:51:17.700Z,16.40
2018-08-06T02:53:46.118Z,16.30
2018-08-06T02:56:14.474Z,16.30
2018-08-06T02:58:42.868Z,16.30
2018-08-06T03:01:11.235Z,16.30
2018-08-06T03:03:39.585Z,16.30
2018-08-06T03:06:07.967Z,16.30
2018-08-06T03:08:36.406Z,16.30
2018-08-06T03:11:04.828Z,16.20
2018-08-06T03:13:33.244Z,16.20
2018-08-06T03:16:02.436Z,16.20
2018-08-06T03:18:30.862Z,16.30
2018-08-06T03:20:59.206Z,16.20
2018-08-06T03:23:27.561Z,16.20
2018-08-06T03:25:55.962Z,16.20
2018-08-06T03:28:24.326Z,16.10
2018-08-06T03:30:52.701Z,16.10
2018-08-06T03:33:21.062Z,16.00
2018-08-06T03:35:49.466Z,16.00
2018-08-06T03:38:17.872Z,16.00
2018-08-06T03:40:46.280Z,16.00
2018-08-06T03:43:14.640Z,15.90
2018-08-06T03:48:11.156Z,15.90
2018-08-06T03:50:39.520Z,15.90
2018-08-06T03:53:07.904Z,15.90
2018-08-06T03:55:36.315Z,15.90
2018-08-06T03:58:04.750Z,15.90
2018-08-06T04:00:33.140Z,15.90
2018-08-06T04:03:02.322Z,15.90
2018-08-06T04:05:30.711Z,15.80
2018-08-06T04:07:59.068Z,15.80
2018-08-06T04:10:27.436Z,15.80
2018-08-06T04:12:55.766Z,15.90
2018-08-06T04:15:24.112Z,15.80
2018-08-06T04:17:52.472Z,15.90
2018-08-06T04:20:20.826Z,15.90
2018-08-06T04:22:49.197Z,15.90
2018-08-06T04:25:17.560Z,15.80
2018-08-06T04:27:45.888Z,15.80
2018-08-06T04:30:15.174Z,15.80
2018-08-06T04:32:44.605Z,15.90
2018-08-06T04:35:13.129Z,15.80
2018-08-06T04:37:41.943Z,15.80
2018-08-06T04:40:11.474Z,15.80
2018-08-06T04:42:40.159Z,15.80
2018-08-06T04:45:09.250Z,15.80
2018-08-06T04:47:38.061Z,15.80
2018-08-06T04:50:07.155Z,15.80
2018-08-06T04:57:31.652Z,15.90
2018-08-06T05:00:00.030Z,15.90
2018-08-06T05:02:28.382Z,15.90
2018-08-06T05:04:56.752Z,16.10
2018-08-06T05:07:27.157Z,16.10
2018-08-06T05:09:55.522Z,16.20
2018-08-06T05:14:51.972Z,16.30
2018-08-06T05:17:20.372Z,16.40
2018-08-06T05:19:48.836Z,16.40
2018-08-06T05:22:17.202Z,16.50
2018-08-06T05:24:45.605Z,16.60
2018-08-06T05:27:14.013Z,16.70
2018-08-06T05:29:42.402Z,16.80
2018-08-06T05:32:10.828Z,16.90
2018-08-06T05:34:39.202Z,17.00
2018-08-06T05:37:07.562Z,17.10
2018-08-06T05:39:35.918Z,17.10
2018-08-06T05:42:04.344Z,17.20
2018-08-06T05:44:32.714Z,17.40
2018-08-06T05:47:01.052Z,17.50
2018-08-06T05:49:29.450Z,17.60
2018-08-06T05:51:57.835Z,17.60
2018-08-06T05:54:26.364Z,17.70
2018-08-06T05:56:54.738Z,17.90
2018-08-06T05:59:23.174Z,18.00
2018-08-06T06:01:51.658Z,18.10
2018-08-06T06:04:20.059Z,18.30
2018-08-06T06:06:48.499Z,18.40
2018-08-06T06:09:20.464Z,18.60
2018-08-06T06:11:49.826Z,18.70
2018-08-06T06:14:18.208Z,18.80
2018-08-06T06:16:47.667Z,19.00
2018-08-06T06:19:16.074Z,19.10
2018-08-06T06:21:44.442Z,19.40
2018-08-06T06:24:12.810Z,19.50
2018-08-06T06:26:41.188Z,19.70
2018-08-06T06:29:09.575Z,19.70
2018-08-06T06:31:37.987Z,20.00
2018-08-06T06:34:06.407Z,20.10
2018-08-06T06:36:34.766Z,20.20
2018-08-06T06:39:03.244Z,20.40
2018-08-06T06:43:59.757Z,20.80
2018-08-06T06:46:28.108Z,21.00
2018-08-06T06:48:56.522Z,21.20
2018-08-06T06:51:24.982Z,21.40
2018-08-06T06:53:53.346Z,21.50
2018-08-06T06:56:21.718Z,21.60
2018-08-06T06:58:50.114Z,21.80
2018-08-06T07:01:18.474Z,21.80
2018-08-06T07:03:46.811Z,21.70
2018-08-06T07:06:15.227Z,21.70
2018-08-06T07:08:43.662Z,21.60
2018-08-06T07:11:12.071Z,21.50
2018-08-06T07:13:40.561Z,21.40
2018-08-06T07:16:09.281Z,21.40
2018-08-06T07:18:40.890Z,21.60
2018-08-06T07:21:09.306Z,21.90
2018-08-06T07:23:37.700Z,22.00
2018-08-06T07:26:06.284Z,22.20
2018-08-06T07:28:34.671Z,22.30
2018-08-06T07:31:03.108Z,22.50
2018-08-06T07:33:31.525Z,22.50
2018-08-06T07:36:00.089Z,22.50
2018-08-06T07:38:28.591Z,22.70
2018-08-06T07:43:25.126Z,22.90
2018-08-06T07:45:53.541Z,23.00
2018-08-06T07:48:21.986Z,23.10
2018-08-06T07:50:50.477Z,23.30
2018-08-06T07:53:18.883Z,23.40
2018-08-06T07:55:47.293Z,23.60
2018-08-06T07:58:15.667Z,23.60
2018-08-06T08:00:45.289Z,23.60
2018-08-06T08:03:13.735Z,23.80
2018-08-06T08:05:42.147Z,23.80
2018-08-06T08:08:10.597Z,23.80
2018-08-06T08:10:39.140Z,23.90
2018-08-06T08:13:07.570Z,23.90
2018-08-06T08:15:36.090Z,24.10
2018-08-06T08:18:05.496Z,24.10
2018-08-06T08:20:35.312Z,24.20
2018-08-06T08:23:04.384Z,24.30
2018-08-06T08:25:32.872Z,24.40
2018-08-06T08:28:01.337Z,24.50
2018-08-06T08:30:29.785Z,24.60
2018-08-06T08:32:58.210Z,24.70
2018-08-06T08:35:30.312Z,24.80
2018-08-06T08:37:58.856Z,25.00
2018-08-06T08:40:27.354Z,25.10
2018-08-06T08:42:55.819Z,25.20
2018-08-06T08:45:24.541Z,25.30
2018-08-06T08:47:52.972Z,25.10
2018-08-06T08:50:21.444Z,25.20
2018-08-06T08:52:50.033Z,25.20
2018-08-06T08:55:19.517Z,25.30
2018-08-06T08:57:47.946Z,25.40
2018-08-06T09:00:17.833Z,25.50
2018-08-06T09:02:47.224Z,25.60
2018-08-06T09:05:16.324Z,25.80
2018-08-06T09:07:44.726Z,25.90
2018-08-06T09:10:14.330Z,26.00
2018-08-06T09:12:43.216Z,26.10
2018-08-06T09:15:23.270Z,26.20
2018-08-06T09:17:51.818Z,26.20
2018-08-06T09:20:20.466Z,26.20
2018-08-06T09:22:49.015Z,26.20
2018-08-06T09:25:17.500Z,26.30
2018-08-06T09:27:48.166Z,26.40
2018-08-06T09:30:19.907Z,26.50
2018-08-06T09:32:49.594Z,26.60
2018-08-06T09:35:18.712Z,26.80
2018-08-06T09:37:48.222Z,26.90
2018-08-06T09:40:17.785Z,26.90
2018-08-06T09:42:46.918Z,26.90
2018-08-06T09:45:16.413Z,27.10
2018-08-06T09:47:46.048Z,27.20
2018-08-06T09:50:15.231Z,27.30
2018-08-06T09:52:48.122Z,27.30
2018-08-06T09:55:21.919Z,27.30
2018-08-06T09:57:50.584Z,27.40
2018-08-06T10:00:25.430Z,27.50
2018-08-06T10:02:54.574Z,27.60
2018-08-06T10:05:23.995Z,27.70
2018-08-06T10:07:52.564Z,27.80
2018-08-06T10:10:21.214Z,27.80
2018-08-06T10:12:49.637Z,27.90
2018-08-06T10:15:18.587Z,27.90
2018-08-06T10:17:48.450Z,28.00
2018-08-06T10:20:18.227Z,28.20
2018-08-06T10:22:46.763Z,28.20
2018-08-06T10:25:15.795Z,28.30
2018-08-06T10:27:45.040Z,28.40
2018-08-06T10:30:15.637Z,28.50
2018-08-06T10:32:44.535Z,28.50
2018-08-06T10:35:14.030Z,28.50
2018-08-06T10:37:42.516Z,28.50
2018-08-06T10:40:14.643Z,28.60
2018-08-06T10:42:43.806Z,28.50
2018-08-06T10:45:13.757Z,28.40
2018-08-06T10:47:42.310Z,28.40
2018-08-06T10:50:10.938Z,28.60
2018-08-06T10:52:39.462Z,28.80
2018-08-06T10:55:08.924Z,28.80
2018-08-06T10:57:37.833Z,28.60
2018-08-06T11:00:19.866Z,28.80
2018-08-06T11:02:48.403Z,29.00
2018-08-06T11:05:17.393Z,29.10
2018-08-06T11:07:45.886Z,29.20
2018-08-06T11:10:17.746Z,29.30
2018-08-06T11:12:46.225Z,29.40
2018-08-06T11:15:16.966Z,29.40
2018-08-06T11:17:45.454Z,29.40
2018-08-06T11:20:14.943Z,29.50
2018-08-06T11:22:43.442Z,29.50
2018-08-06T11:25:13.370Z,29.70
2018-08-06T11:27:41.916Z,29.70
2018-08-06T11:30:12.564Z,29.80
2018-08-06T11:32:40.974Z,29.80
2018-08-06T11:35:10.239Z,29.70
2018-08-06T11:37:38.784Z,29.70
2018-08-06T11:40:08.412Z,29.70
2018-08-06T11:42:37.223Z,29.80
2018-08-06T11:45:05.900Z,30.00
2018-08-06T11:47:34.236Z,30.00
2018-08-06T11:50:02.700Z,30.10
2018-08-06T11:52:31.120Z,30.00
2018-08-06T11:54:59.506Z,29.90
2018-08-06T11:57:28.132Z,29.80
2018-08-06T11:59:56.618Z,30.00
2018-08-06T12:02:25.359Z,30.40
2018-08-06T12:04:53.770Z,30.80
2018-08-06T12:07:22.390Z,30.90
2018-08-06T12:09:50.758Z,30.90
2018-08-06T12:12:19.544Z,30.50
2018-08-06T12:14:47.927Z,30.50
2018-08-06T12:19:44.433Z,30.60
2018-08-06T12:22:12.847Z,30.70
2018-08-06T12:24:41.309Z,30.80
2018-08-06T12:27:09.731Z,30.80
2018-08-06T12:32:06.611Z,30.70
2018-08-06T12:34:35.052Z,30.60
2018-08-06T12:37:04.527Z,30.60
2018-08-06T12:39:32.906Z,30.60
2018-08-06T12:42:01.331Z,30.60
2018-08-06T12:46:57.857Z,30.70
2018-08-06T12:49:26.247Z,30.80
2018-08-06T12:51:54.742Z,31.00
2018-08-06T12:54:23.166Z,31.00
2018-08-06T12:56:51.549Z,31.10
2018-08-06T12:59:20.008Z,31.10
2018-08-06T13:01:48.469Z,31.30
2018-08-06T13:04:16.955Z,31.50
2018-08-06T13:06:45.468Z,31.50
2018-08-06T13:09:13.959Z,31.60
2018-08-06T13:11:42.442Z,31.60
2018-08-06T13:14:12.053Z,31.60
2018-08-06T13:16:40.437Z,31.60
2018-08-06T13:19:08.785Z,31.40
2018-08-06T13:21:37.202Z,31.30
2018-08-06T13:24:05.617Z,31.30
2018-08-06T13:26:34.018Z,31.40
2018-08-06T13:29:02.403Z,31.30
2018-08-06T13:31:30.777Z,31.50
2018-08-06T13:33:59.202Z,31.60
2018-08-06T13:36:27.636Z,31.60
2018-08-06T13:38:59.043Z,31.60
2018-08-06T13:41:27.493Z,31.50
2018-08-06T13:43:55.912Z,31.60
2018-08-06T13:46:24.368Z,31.60
2018-08-06T13:48:52.775Z,31.70
2018-08-06T13:51:21.191Z,31.70
2018-08-06T13:53:49.731Z,31.60
2018-08-06T13:56:18.174Z,31.70
2018-08-06T14:01:14.739Z,31.80
2018-08-06T14:03:45.162Z,31.80
2018-08-06T14:06:13.589Z,31.70
2018-08-06T14:08:41.999Z,31.60
2018-08-06T14:11:10.513Z,31.80
2018-08-06T14:13:38.922Z,31.80
2018-08-06T14:16:07.320Z,31.70
2018-08-06T14:18:35.751Z,31.50
2018-08-06T14:21:04.200Z,31.50
2018-08-06T14:23:32.571Z,31.50
2018-08-06T14:26:00.993Z,31.50
2018-08-06T14:28:29.378Z,31.40
2018-08-06T14:33:25.917Z,31.40
2018-08-06T14:35:54.305Z,31.40
2018-08-06T14:38:22.718Z,31.30
2018-08-06T14:40:51.140Z,31.40
2018-08-06T14:43:19.480Z,31.50
2018-08-06T14:45:47.912Z,31.70
2018-08-06T14:48:16.338Z,31.80
2018-08-06T14:50:44.752Z,32.00
2018-08-06T14:53:13.148Z,31.90
2018-08-06T14:55:41.558Z,31.70
2018-08-06T14:58:09.966Z,31.70
2018-08-06T15:00:38.436Z,31.80
2018-08-06T15:03:06.851Z,32.00
2018-08-06T15:05:35.315Z,32.00
2018-08-06T15:08:03.832Z,32.00
2018-08-06T15:10:32.302Z,32.00
2018-08-06T15:13:00.721Z,32.10
2018-08-06T15:15:29.355Z,32.20
2018-08-06T15:17:57.847Z,32.10
2018-08-06T15:20:26.307Z,32.10
2018-08-06T15:22:54.715Z,32.10
2018-08-06T15:25:24.041Z,32.00
2018-08-06T15:27:52.677Z,32.00
2018-08-06T15:30:21.123Z,32.10
2018-08-06T15:32:49.578Z,32.30
2018-08-06T15:35:18.122Z,32.10
2018-08-06T15:37:46.607Z,31.90
2018-08-06T15:40:16.740Z,31.70
2018-08-06T15:42:45.215Z,31.70
2018-08-06T15:45:14.246Z,31.70
2018-08-06T15:47:43.691Z,31.80
2018-08-06T15:50:15.438Z,31.90
2018-08-06T15:55:12.182Z,31.60
2018-08-06T15:57:40.627Z,31.40
2018-08-06T16:00:13.536Z,31.50
2018-08-06T16:02:42.001Z,31.80
2018-08-06T16:05:10.963Z,31.90
2018-08-06T16:07:39.585Z,32.00
2018-08-06T16:10:09.659Z,31.90
2018-08-06T16:12:38.131Z,32.00
2018-08-06T16:15:08.370Z,32.10
2018-08-06T16:17:37.150Z,32.20
2018-08-06T16:20:07.649Z,32.30
2018-08-06T16:22:39.946Z,32.30
2018-08-06T16:25:09.256Z,32.30
2018-08-06T16:27:37.597Z,32.30
2018-08-06T16:30:14.395Z,32.30
2018-08-06T16:32:43.398Z,32.20
2018-08-06T16:35:11.844Z,32.20
2018-08-06T16:37:40.277Z,32.20
2018-08-06T16:40:09.514Z,32.30
2018-08-06T16:42:37.942Z,32.20
2018-08-06T16:45:07.010Z,32.00
2018-08-06T16:47:36.649Z,31.80
2018-08-06T16:52:33.579Z,32.00
2018-08-06T16:57:30.050Z,31.90
2018-08-06T16:59:58.451Z,31.70
2018-08-06T17:02:27.345Z,31.70
2018-08-06T17:04:55.736Z,31.90
2018-08-06T17:07:24.092Z,31.90
2018-08-06T17:09:52.489Z,32.00
2018-08-06T17:12:20.901Z,32.00
2018-08-06T17:14:49.288Z,31.70
2018-08-06T17:17:17.853Z,31.50
2018-08-06T17:19:46.286Z,31.30
2018-08-06T17:22:14.717Z,31.20
2018-08-06T17:24:43.135Z,31.00
2018-08-06T17:27:11.599Z,30.90
2018-08-06T17:29:40.047Z,30.70
2018-08-06T17:32:08.485Z,30.60
2018-08-06T17:34:36.929Z,30.70
2018-08-06T17:37:05.471Z,30.60
2018-08-06T17:39:34.059Z,30.50
2018-08-06T17:42:02.547Z,30.50
2018-08-06T17:44:31.355Z,30.30
2018-08-06T17:47:05.866Z,30.20
2018-08-06T17:49:34.392Z,30.10
2018-08-06T17:52:02.826Z,30.00
2018-08-06T17:54:31.233Z,30.00
2018-08-06T17:56:59.903Z,29.80
2018-08-06T17:59:28.313Z,29.80
2018-08-06T18:01:56.703Z,29.70
2018-08-06T18:04:25.293Z,29.60
2018-08-06T18:06:53.659Z,29.50
2018-08-06T18:09:22.131Z,29.50
2018-08-06T18:11:50.605Z,29.40
2018-08-06T18:14:19.201Z,29.40
2018-08-06T18:16:47.777Z,29.30
2018-08-06T18:19:16.228Z,29.30
2018-08-06T18:21:44.731Z,29.20
2018-08-06T18:24:13.114Z,29.20
2018-08-06T18:26:41.453Z,29.10
2018-08-06T18:29:09.860Z,29.00
2018-08-06T18:34:06.985Z,28.90
2018-08-06T18:36:35.489Z,28.80
2018-08-06T18:39:06.285Z,28.80
2018-08-06T18:41:34.692Z,28.60
2018-08-06T18:44:03.137Z,28.60
2018-08-06T18:46:32.117Z,28.50
2018-08-06T18:49:00.578Z,28.40
2018-08-06T18:53:57.585Z,28.10
2018-08-06T18:56:26.417Z,28.10
2018-08-06T18:58:55.130Z,28.00
2018-08-06T19:01:23.805Z,27.90
2018-08-06T19:03:52.449Z,27.80
2018-08-06T19:06:21.587Z,27.70
2018-08-06T19:08:51.043Z,27.50
2018-08-06T19:11:19.544Z,27.50
2018-08-06T19:13:53.558Z,27.40
2018-08-06T19:16:22.263Z,27.30
2018-08-06T19:18:56.957Z,27.10
2018-08-06T19:21:26.183Z,27.10
2018-08-06T19:24:00.136Z,26.90
2018-08-06T19:26:28.757Z,26.80
2018-08-06T19:28:57.443Z,26.80
2018-08-06T19:31:26.737Z,26.80
2018-08-06T19:33:56.117Z,26.70
2018-08-06T19:36:24.732Z,26.60
2018-08-06T19:38:57.671Z,26.50
2018-08-06T19:41:26.437Z,26.40
2018-08-06T19:43:54.881Z,26.20
2018-08-06T19:46:23.560Z,26.10
2018-08-06T19:48:52.967Z,25.90
2018-08-06T19:51:21.583Z,25.80
2018-08-06T19:53:50.095Z,25.80
2018-08-06T19:56:18.638Z,25.80
2018-08-06T19:58:47.113Z,25.70
2018-08-06T20:01:15.529Z,25.70
2018-08-06T20:03:43.983Z,25.70
2018-08-06T20:06:15.923Z,25.70
2018-08-06T20:08:44.379Z,25.70
2018-08-06T20:11:12.836Z,25.60
2018-08-06T20:13:41.311Z,25.40
2018-08-06T20:16:09.839Z,25.30
2018-08-06T20:18:38.440Z,25.10
2018-08-06T20:21:06.951Z,25.10
2018-08-06T20:23:35.548Z,25.00
2018-08-06T20:26:03.993Z,25.00
2018-08-06T20:28:32.608Z,25.10
2018-08-06T20:31:01.076Z,25.10
2018-08-06T20:33:31.405Z,25.00
2018-08-06T20:35:59.814Z,24.90
2018-08-06T20:38:28.258Z,24.80
2018-08-06T20:40:56.726Z,24.70
2018-08-06T20:43:25.146Z,24.60
2018-08-06T20:45:53.655Z,24.50
2018-08-06T20:48:22.087Z,24.40
2018-08-06T20:50:50.545Z,24.50
2018-08-06T20:55:47.135Z,24.50
2018-08-06T20:58:15.659Z,24.50
2018-08-06T21:00:44.242Z,24.50
2018-08-06T21:03:12.740Z,24.50
2018-08-06T21:08:09.479Z,24.50
2018-08-06T21:10:37.959Z,24.40
2018-08-06T21:13:06.484Z,24.20
2018-08-06T21:15:34.950Z,24.20
2018-08-06T21:18:03.417Z,24.10
2018-08-06T21:20:35.639Z,24.00
2018-08-06T21:23:04.089Z,24.00
2018-08-06T21:25:32.480Z,23.90
2018-08-06T21:28:00.901Z,23.80
2018-08-06T21:30:29.425Z,23.70
2018-08-06T21:32:58.148Z,23.60
2018-08-06T21:35:27.868Z,23.60
2018-08-06T21:37:57.659Z,23.50
2018-08-06T21:40:26.580Z,23.40
2018-08-06T21:42:54.993Z,23.40
2018-08-06T21:45:23.710Z,23.50
2018-08-06T21:47:52.150Z,23.50
2018-08-06T21:50:20.648Z,23.50
2018-08-06T21:52:49.162Z,23.40
2018-08-06T21:55:17.614Z,23.30
2018-08-06T21:57:46.025Z,23.20
2018-08-06T22:02:45.912Z,23.10
2018-08-06T22:05:14.425Z,23.00
2018-08-06T22:07:44.131Z,22.90
2018-08-06T22:12:40.712Z,22.80
2018-08-06T22:15:10.167Z,22.70
2018-08-06T22:17:38.557Z,22.60
2018-08-06T22:20:07.026Z,22.50
2018-08-06T22:22:35.481Z,22.50
2018-08-06T22:25:03.916Z,22.50
2018-08-06T22:27:32.256Z,22.40
2018-08-06T22:30:00.601Z,22.40
2018-08-06T22:32:29.135Z,22.40
2018-08-06T22:34:57.672Z,22.30
2018-08-06T22:37:26.142Z,22.30
2018-08-06T22:39:54.610Z,22.30
2018-08-06T22:42:22.982Z,22.20
2018-08-06T22:44:51.416Z,22.10
2018-08-06T22:47:19.796Z,22.10
2018-08-06T22:49:48.172Z,22.00
2018-08-06T22:52:16.596Z,21.90
2018-08-06T22:54:45.041Z,21.90
2018-08-06T22:57:13.468Z,21.90
2018-08-06T22:59:41.863Z,21.80
2018-08-06T23:02:10.278Z,21.80
2018-08-06T23:04:38.734Z,21.70
2018-08-06T23:09:35.241Z,21.70
2018-08-06T23:12:03.697Z,21.70
2018-08-06T23:14:32.122Z,21.80
2018-08-06T23:17:00.526Z,21.80
2018-08-06T23:19:28.958Z,21.70
2018-08-06T23:21:57.440Z,21.60
2018-08-06T23:24:25.841Z,21.50
2018-08-06T23:26:54.289Z,21.40
2018-08-06T23:29:22.705Z,21.40
2018-08-06T23:31:51.112Z,21.30
2018-08-06T23:34:19.526Z,21.30
2018-08-06T23:36:47.904Z,21.20
2018-08-06T23:39:16.359Z,21.20
2018-08-06T23:44:12.944Z,21.10
2018-08-06T23:46:41.567Z,21.00
2018-08-06T23:49:10.033Z,21.00
2018-08-06T23:51:38.492Z,20.90
2018-08-06T23:54:06.895Z,20.80
2018-08-06T23:56:35.270Z,20.80
2018-08-06T23:59:03.984Z,20.70
